createdAt,value
2019-01-14T00:00:46.330Z,0
2019-01-14T00:01:42.652Z,0
2019-01-14T00:02:38.068Z,0
2019-01-14T00:03:39.396Z,0
2019-01-14T00:04:38.708Z,0
2019-01-14T00:05:34.712Z,0
2019-01-14T00:09:54.354Z,0
2019-01-14T00:10:50.801Z,0
2019-01-14T00:11:46.318Z,0
2019-01-14T00:12:43.431Z,0
2019-01-14T00:13:37.391Z,0
2019-01-14T00:14:33.820Z,0
2019-01-14T00:15:44.877Z,0
2019-01-14T00:16:40.092Z,0
2019-01-14T00:17:36.945Z,0
2019-01-14T00:18:30.891Z,0
2019-01-14T00:19:23.709Z,0
2019-01-14T00:20:15.899Z,0
2019-01-14T00:21:17.458Z,0
2019-01-14T00:22:11.566Z,0
2019-01-14T00:31:32.241Z,0
2019-01-14T00:32:28.608Z,0
2019-01-14T00:33:30.939Z,0
2019-01-14T00:34:26.765Z,0
2019-01-14T00:35:22.327Z,0
2019-01-14T00:36:17.525Z,0
2019-01-14T00:37:12.017Z,0
2019-01-14T00:38:06.027Z,0
2019-01-14T00:39:03.705Z,0
2019-01-14T00:40:03.541Z,0
2019-01-14T00:40:57.634Z,0
2019-01-14T00:41:54.881Z,0
2019-01-14T00:42:52.130Z,0
2019-01-14T00:43:46.430Z,0
2019-01-14T00:44:41.344Z,0
2019-01-14T00:45:37.776Z,0
2019-01-14T00:46:33.959Z,0
2019-01-14T00:47:32.260Z,0
2019-01-14T00:48:33.552Z,0
2019-01-14T00:49:33.276Z,0
2019-01-14T00:50:32.923Z,0
2019-01-14T00:51:26.147Z,0
2019-01-14T00:52:21.924Z,0
2019-01-14T00:53:20.955Z,0
2019-01-14T00:54:17.592Z,0
2019-01-14T00:55:14.418Z,0
2019-01-14T00:56:16.839Z,0
2019-01-14T00:57:13.522Z,0
2019-01-14T00:58:07.883Z,0
2019-01-14T00:59:08.899Z,0
2019-01-14T01:00:03.274Z,0
2019-01-14T01:06:16.282Z,0
2019-01-14T01:07:15.199Z,0
2019-01-14T01:08:11.624Z,0
2019-01-14T01:09:07.879Z,0
2019-01-14T01:10:03.972Z,0
2019-01-14T01:10:58.996Z,0
2019-01-14T01:11:51.781Z,0
2019-01-14T01:12:49.301Z,0
2019-01-14T01:13:50.480Z,0
2019-01-14T01:14:44.307Z,0
2019-01-14T01:15:41.518Z,0
2019-01-14T01:16:34.930Z,0
2019-01-14T01:17:32.507Z,0
2019-01-14T01:18:26.340Z,0
2019-01-14T01:19:23.080Z,0
2019-01-14T01:20:18.544Z,0
2019-01-14T01:21:14.280Z,0
2019-01-14T01:22:08.259Z,0
2019-01-14T01:23:05.576Z,0
2019-01-14T01:23:59.851Z,0
2019-01-14T01:24:55.920Z,0
2019-01-14T01:25:50.904Z,0
2019-01-14T01:26:52.181Z,0
2019-01-14T01:27:48.057Z,0
2019-01-14T01:28:47.687Z,0
2019-01-14T01:29:45.519Z,0
2019-01-14T01:30:40.598Z,0
2019-01-14T01:31:35.705Z,0
2019-01-14T01:32:32.558Z,0
2019-01-14T01:33:37.610Z,0
2019-01-14T01:34:37.581Z,0
2019-01-14T01:35:33.297Z,0
2019-01-14T01:36:31.912Z,0
2019-01-14T01:37:29.139Z,0
2019-01-14T01:38:24.314Z,0
2019-01-14T01:39:04.572Z,0
2019-01-14T01:39:46.352Z,0
2019-01-14T01:40:28.294Z,0
2019-01-14T01:41:10.277Z,0
2019-01-14T01:41:57.284Z,0
2019-01-14T01:42:40.717Z,0
2019-01-14T01:43:20.778Z,0
2019-01-14T01:44:02.205Z,0
2019-01-14T01:44:42.624Z,0
2019-01-14T01:45:29.537Z,0
2019-01-14T01:46:15.666Z,0
2019-01-14T01:46:56.346Z,0
2019-01-14T01:47:45.906Z,0
2019-01-14T01:48:32.735Z,0
2019-01-14T01:49:19.268Z,0
2019-01-14T01:50:08.655Z,0
2019-01-14T01:50:51.394Z,0
2019-01-14T01:51:37.392Z,0
2019-01-14T01:52:20.818Z,0
2019-01-14T01:53:01.459Z,0
2019-01-14T01:53:43.469Z,0
2019-01-14T01:54:28.033Z,0
2019-01-14T01:55:11.311Z,0
2019-01-14T01:55:53.428Z,0
2019-01-14T01:58:28.666Z,0
2019-01-14T01:59:24.674Z,0
2019-01-14T02:00:21.339Z,0
2019-01-14T02:01:17.075Z,0
2019-01-14T02:02:15.004Z,0
2019-01-14T02:03:10.051Z,0
2019-01-14T02:04:06.324Z,0
2019-01-14T02:05:02.865Z,0
2019-01-14T02:05:56.917Z,0
2019-01-14T02:06:49.999Z,0
2019-01-14T02:07:47.481Z,0
2019-01-14T02:08:44.048Z,0
2019-01-14T02:09:39.227Z,0
2019-01-14T02:10:37.702Z,0
2019-01-14T02:11:32.968Z,0
2019-01-14T02:12:28.994Z,0
2019-01-14T02:18:50.766Z,0
2019-01-14T02:19:47.302Z,0
2019-01-14T02:20:42.616Z,0
2019-01-14T02:21:35.943Z,0
2019-01-14T02:22:31.075Z,0
2019-01-14T02:23:33.650Z,0
2019-01-14T02:24:28.858Z,0
2019-01-14T02:25:23.828Z,0
2019-01-14T02:26:18.391Z,0
2019-01-14T02:27:14.392Z,0
2019-01-14T02:28:16.297Z,0
2019-01-14T02:29:16.864Z,0
2019-01-14T02:30:13.102Z,0
2019-01-14T02:31:16.594Z,0
2019-01-14T02:32:16.941Z,0
2019-01-14T02:33:13.201Z,0
2019-01-14T02:34:07.992Z,0
2019-01-14T02:35:08.229Z,0
2019-01-14T02:36:23.629Z,0
2019-01-14T02:37:23.740Z,0
2019-01-14T02:38:18.543Z,0
2019-01-14T02:39:15.177Z,0
2019-01-14T02:40:32.184Z,0
2019-01-14T02:46:04.344Z,0
2019-01-14T02:47:00.004Z,0
2019-01-14T02:47:53.660Z,0
2019-01-14T02:48:48.842Z,0
2019-01-14T02:49:41.437Z,0
2019-01-14T02:50:35.428Z,0
2019-01-14T02:51:28.140Z,0
2019-01-14T02:52:22.826Z,0
2019-01-14T02:53:17.737Z,0
2019-01-14T02:54:19.735Z,0
2019-01-14T02:58:31.983Z,0
2019-01-14T02:59:28.464Z,0
2019-01-14T03:00:24.118Z,0
2019-01-14T03:01:17.473Z,0
2019-01-14T03:02:14.847Z,0
2019-01-14T03:03:10.908Z,0
2019-01-14T03:04:08.894Z,0
2019-01-14T03:05:02.634Z,0
2019-01-14T03:06:12.117Z,0
2019-01-14T03:09:05.345Z,0
2019-01-14T03:09:58.396Z,0
2019-01-14T03:10:53.724Z,0
2019-01-14T03:11:47.421Z,0
2019-01-14T03:12:43.279Z,0
2019-01-14T03:13:41.384Z,0
2019-01-14T03:14:38.810Z,0
2019-01-14T03:15:42.170Z,0
2019-01-14T03:16:39.133Z,0
2019-01-14T03:19:39.626Z,0
2019-01-14T03:20:42.091Z,0
2019-01-14T03:21:40.909Z,0
2019-01-14T03:22:39.191Z,0
2019-01-14T03:23:33.106Z,0
2019-01-14T03:24:40.048Z,0
2019-01-14T03:25:41.590Z,0
2019-01-14T03:26:45.525Z,0
2019-01-14T03:27:41.619Z,0
2019-01-14T03:30:45.512Z,0
2019-01-14T03:31:41.521Z,0
2019-01-14T03:32:39.496Z,0
2019-01-14T03:33:33.533Z,0
2019-01-14T03:34:32.285Z,0
2019-01-14T03:35:31.599Z,0
2019-01-14T03:36:28.927Z,0
2019-01-14T03:37:25.490Z,0
2019-01-14T03:42:52.766Z,0
2019-01-14T03:43:52.607Z,0
2019-01-14T03:45:03.104Z,0
2019-01-14T03:46:13.468Z,0
2019-01-14T03:47:08.994Z,0
2019-01-14T03:48:04.620Z,0
2019-01-14T03:49:07.860Z,0
2019-01-14T03:50:04.313Z,0
2019-01-14T03:51:02.500Z,0
2019-01-14T03:52:01.095Z,0
2019-01-14T03:52:58.476Z,0
2019-01-14T03:57:32.466Z,0
2019-01-14T03:58:29.519Z,0
2019-01-14T03:59:25.493Z,0
2019-01-14T04:00:22.567Z,0
2019-01-14T04:01:20.133Z,0
2019-01-14T04:02:14.351Z,0
2019-01-14T04:03:11.943Z,0
2019-01-14T04:04:35.024Z,0
2019-01-14T04:05:31.713Z,0
2019-01-14T04:06:24.229Z,0
2019-01-14T04:07:19.306Z,0
2019-01-14T04:08:13.021Z,0
2019-01-14T04:09:05.900Z,0
2019-01-14T04:10:05.797Z,0
2019-01-14T04:20:58.701Z,0
2019-01-14T04:21:54.322Z,0
2019-01-14T04:22:54.544Z,0
2019-01-14T04:27:14.615Z,0
2019-01-14T04:28:12.200Z,0
2019-01-14T04:29:07.156Z,0
2019-01-14T05:19:44.405Z,0
2019-01-14T05:20:38.567Z,0
2019-01-14T05:24:36.640Z,0
2019-01-14T05:25:35.519Z,0
2019-01-14T05:31:47.404Z,0
2019-01-14T05:32:43.259Z,0
2019-01-14T05:33:52.452Z,0
2019-01-14T05:34:49.343Z,0
2019-01-14T05:35:44.899Z,0
2019-01-14T05:36:41.157Z,0
2019-01-14T05:37:37.490Z,0
2019-01-14T05:38:40.339Z,0
2019-01-14T05:39:42.087Z,0
2019-01-14T05:40:38.906Z,0
2019-01-14T05:41:35.486Z,0
2019-01-14T05:42:31.121Z,0
2019-01-14T05:45:38.194Z,0
2019-01-14T05:46:37.640Z,0
2019-01-14T05:47:35.057Z,0
2019-01-14T05:48:30.825Z,0
2019-01-14T05:49:33.914Z,0
2019-01-14T06:00:00.742Z,0
2019-01-14T06:00:55.475Z,0
2019-01-14T06:01:48.793Z,0
2019-01-14T06:02:43.835Z,0
2019-01-14T06:03:38.698Z,0
2019-01-14T06:04:38.119Z,0
2019-01-14T06:05:33.801Z,0
2019-01-14T06:06:27.063Z,0
2019-01-14T06:07:22.891Z,0
2019-01-14T06:08:20.344Z,0
2019-01-14T06:09:17.256Z,0
2019-01-14T06:10:12.396Z,0
2019-01-14T06:11:09.341Z,0
2019-01-14T06:12:07.438Z,0
2019-01-14T06:13:07.382Z,0
2019-01-14T06:14:02.690Z,0
2019-01-14T06:15:03.493Z,0
2019-01-14T06:16:33.453Z,0
2019-01-14T06:17:29.921Z,0
2019-01-14T06:18:33.763Z,0
2019-01-14T06:19:44.013Z,0
2019-01-14T06:32:54.520Z,0
2019-01-14T06:33:57.272Z,0
2019-01-14T06:34:59.298Z,0
2019-01-14T06:35:55.449Z,0
2019-01-14T06:36:50.728Z,0
2019-01-14T06:37:52.391Z,0
2019-01-14T06:38:48.132Z,0
2019-01-14T06:39:47.658Z,0
2019-01-14T06:41:02.336Z,0
2019-01-14T06:41:59.491Z,0
2019-01-14T06:42:54.805Z,0
2019-01-14T06:44:00.286Z,0
2019-01-14T06:45:01.887Z,0
2019-01-14T06:55:06.490Z,0
2019-01-14T06:56:08.217Z,0
2019-01-14T06:57:04.409Z,0
2019-01-14T06:58:20.580Z,0
2019-01-14T06:59:17.956Z,0
2019-01-14T07:00:15.205Z,0
2019-01-14T07:05:19.145Z,0
2019-01-14T07:20:03.129Z,4
2019-01-14T07:29:24.319Z,12
2019-01-14T07:30:25.255Z,16
2019-01-14T07:31:22.067Z,16
2019-01-14T07:32:19.083Z,20
2019-01-14T07:33:18.862Z,16
2019-01-14T07:34:20.493Z,16
2019-01-14T07:35:19.560Z,16
2019-01-14T07:36:15.549Z,12
2019-01-14T07:37:14.075Z,16
2019-01-14T07:38:13.018Z,16
2019-01-14T07:39:11.156Z,16
2019-01-14T07:40:09.640Z,24
2019-01-14T07:41:13.550Z,16
2019-01-14T07:42:10.635Z,20
2019-01-14T07:43:09.794Z,12
2019-01-14T07:44:13.948Z,16
2019-01-14T07:45:12.801Z,24
2019-01-14T07:46:15.414Z,28
2019-01-14T07:47:17.478Z,28
2019-01-14T07:48:25.828Z,36
2019-01-14T07:49:29.314Z,28
2019-01-14T07:50:28.816Z,24
2019-01-14T07:51:37.257Z,20
2019-01-14T07:52:41.607Z,20
2019-01-14T07:53:42.243Z,28
2019-01-14T07:54:44.066Z,36
2019-01-14T07:59:17.015Z,48
2019-01-14T08:00:19.661Z,64
2019-01-14T08:03:19.249Z,56
2019-01-14T08:04:24.109Z,44
2019-01-14T08:05:24.954Z,48
2019-01-14T08:06:26.225Z,48
2019-01-14T08:07:33.138Z,60
2019-01-14T08:08:33.110Z,56
2019-01-14T08:09:32.300Z,56
2019-01-14T08:12:12.479Z,32
2019-01-14T08:13:11.550Z,32
2019-01-14T08:14:11.666Z,28
2019-01-14T08:15:13.204Z,40
2019-01-14T08:16:11.265Z,44
2019-01-14T08:17:07.278Z,48
2019-01-14T08:18:15.391Z,56
2019-01-14T08:19:20.637Z,64
2019-01-14T08:20:19.519Z,84
2019-01-14T08:21:18.204Z,76
2019-01-14T08:22:14.759Z,60
2019-01-14T08:23:10.531Z,56
2019-01-14T08:24:10.810Z,52
2019-01-14T08:25:06.211Z,52
2019-01-14T08:26:08.908Z,72
2019-01-14T08:27:06.967Z,80
2019-01-14T08:28:11.132Z,84
2019-01-14T08:30:44.505Z,100
2019-01-14T08:31:54.289Z,108
2019-01-14T08:33:09.921Z,116
2019-01-14T08:34:21.642Z,84
2019-01-14T08:35:18.866Z,76
2019-01-14T08:36:16.859Z,64
2019-01-14T08:37:16.956Z,96
2019-01-14T08:54:26.106Z,172
2019-01-14T08:56:18.765Z,168
2019-01-14T08:58:33.491Z,56
2019-01-14T09:15:42.914Z,212
2019-01-14T09:16:56.816Z,224
2019-01-14T11:25:46.271Z,708
2019-01-14T11:26:32.754Z,720
2019-01-14T11:27:17.400Z,736
2019-01-14T11:40:32.960Z,200
2019-01-14T11:41:19.152Z,244
2019-01-14T11:58:13.329Z,380
2019-01-14T11:58:54.212Z,368
2019-01-14T13:05:48.356Z,852
2019-01-14T14:03:08.157Z,372
2019-01-14T14:03:49.223Z,400
2019-01-14T14:04:33.353Z,388
2019-01-14T14:05:16.983Z,320
2019-01-14T14:06:00.950Z,284
2019-01-14T14:06:47.791Z,336
2019-01-14T14:07:32.988Z,344
2019-01-14T14:08:18.357Z,360
2019-01-14T14:09:05.774Z,360
2019-01-14T14:09:52.683Z,452
2019-01-14T14:10:39.934Z,464
2019-01-14T14:56:17.057Z,264
2019-01-14T15:19:19.476Z,128
2019-01-14T15:23:43.183Z,108
2019-01-14T15:24:26.065Z,92
2019-01-14T15:25:08.340Z,92
2019-01-14T15:26:07.890Z,84
2019-01-14T15:26:48.291Z,76
2019-01-14T15:27:32.660Z,72
2019-01-14T15:28:15.245Z,92
2019-01-14T15:29:11.162Z,88
2019-01-14T15:29:53.747Z,88
2019-01-14T15:30:36.518Z,88
2019-01-14T15:31:18.052Z,80
2019-01-14T15:32:01.288Z,80
2019-01-14T15:32:41.772Z,84
2019-01-14T15:33:28.290Z,92
2019-01-14T15:34:10.076Z,108
2019-01-14T15:35:00.749Z,100
2019-01-14T15:35:41.513Z,96
2019-01-14T15:50:06.820Z,28
2019-01-14T16:24:23.912Z,0
2019-01-14T16:25:08.898Z,0
2019-01-14T16:25:47.828Z,0
2019-01-14T16:26:29.274Z,0
2019-01-14T16:27:09.891Z,0
2019-01-14T16:27:50.727Z,0
2019-01-14T16:28:34.085Z,0
2019-01-14T16:29:14.138Z,0
2019-01-14T16:31:36.307Z,0
2019-01-14T19:00:19.565Z,0
2019-01-14T19:01:06.452Z,0
2019-01-14T19:05:28.330Z,0
2019-01-14T19:06:09.793Z,0
2019-01-14T19:06:51.550Z,0
2019-01-14T19:07:31.866Z,0
2019-01-14T19:12:00.285Z,0
2019-01-14T21:40:49.827Z,0
2019-01-14T21:42:57.113Z,0
